createdAt,value
2018-03-04T00:00:52.494Z,78.10
2018-03-04T00:01:55.001Z,82.25
2018-03-04T00:02:57.514Z,85.62
2018-03-04T00:04:00.030Z,78.70
2018-03-04T00:05:02.746Z,88.45
2018-03-04T00:06:06.267Z,84.90
2018-03-04T00:07:09.633Z,77.35
2018-03-04T00:08:12.155Z,83.68
2018-03-04T00:09:14.678Z,86.25
2018-03-04T00:10:17.975Z,87.30
2018-03-04T00:11:20.461Z,84.45
2018-03-04T00:12:23.525Z,89.43
2018-03-04T00:13:26.265Z,90.82
2018-03-04T00:14:29.402Z,89.00
2018-03-04T00:15:31.920Z,79.70
2018-03-04T00:29:29.457Z,73.80
2018-03-04T00:30:31.932Z,73.22
2018-03-04T00:31:35.223Z,82.68
2018-03-04T00:32:38.460Z,77.28
2018-03-04T00:33:41.002Z,86.07
2018-03-04T00:34:43.524Z,84.37
2018-03-04T00:35:46.027Z,89.13
2018-03-04T00:36:49.304Z,88.82
2018-03-04T00:37:51.992Z,97.15
2018-03-04T00:38:55.513Z,88.05
2018-03-04T00:39:58.431Z,89.50
2018-03-04T00:41:02.955Z,93.20
2018-03-04T00:42:05.448Z,90.18
2018-03-04T00:43:07.963Z,87.62
2018-03-04T00:44:10.563Z,88.20
2018-03-04T00:45:13.223Z,92.75
2018-03-04T00:46:15.721Z,90.12
2018-03-04T00:47:19.157Z,85.07
2018-03-04T00:48:22.149Z,74.18
2018-03-04T00:49:24.670Z,83.18
2018-03-04T00:50:27.167Z,83.97
2018-03-04T00:51:30.667Z,84.53
2018-03-04T00:52:33.956Z,81.75
2018-03-04T00:53:36.460Z,84.85
2018-03-04T00:54:38.963Z,91.85
2018-03-04T00:55:41.524Z,82.72
2018-03-04T00:56:44.005Z,89.07
2018-03-04T00:57:46.506Z,87.12
2018-03-04T00:58:49.015Z,92.95
2018-03-04T00:59:51.527Z,85.72
2018-03-04T01:00:54.083Z,95.87
2018-03-04T01:01:56.632Z,92.82
2018-03-04T01:02:59.151Z,85.47
2018-03-04T01:04:02.841Z,97.05
2018-03-04T01:05:05.378Z,84.75
2018-03-04T01:06:07.916Z,92.45
2018-03-04T01:07:10.441Z,88.80
2018-03-04T01:08:12.952Z,91.97
2018-03-04T01:09:15.476Z,91.07
2018-03-04T01:10:18.802Z,86.97
2018-03-04T01:11:21.543Z,92.15
2018-03-04T01:12:24.156Z,87.45
2018-03-04T01:13:27.426Z,89.00
2018-03-04T01:14:29.924Z,89.80
2018-03-04T01:15:33.792Z,90.65
2018-03-04T01:16:36.732Z,83.47
2018-03-04T01:17:39.259Z,76.07
2018-03-04T01:18:41.772Z,95.55
2018-03-04T01:19:44.332Z,76.80
2018-03-04T01:20:47.839Z,88.37
2018-03-04T01:21:50.420Z,85.40
2018-03-04T01:22:52.986Z,84.20
2018-03-04T01:23:56.462Z,94.47
2018-03-04T01:24:59.014Z,87.85
2018-03-04T01:26:02.377Z,81.72
2018-03-04T01:27:05.114Z,86.55
2018-03-04T01:28:08.074Z,88.60
2018-03-04T01:29:10.749Z,78.57
2018-03-04T01:30:13.274Z,89.65
2018-03-04T01:31:15.921Z,89.55
2018-03-04T01:32:18.562Z,89.43
2018-03-04T01:33:21.115Z,93.18
2018-03-04T01:34:23.739Z,79.65
2018-03-04T01:35:26.318Z,86.05
2018-03-04T01:36:28.945Z,86.80
2018-03-04T01:37:31.507Z,82.62
2018-03-04T01:38:34.901Z,79.97
2018-03-04T01:39:37.437Z,89.85
2018-03-04T01:40:39.973Z,93.25
2018-03-04T01:41:42.583Z,94.00
2018-03-04T01:42:46.054Z,84.43
2018-03-04T01:43:49.494Z,92.00
2018-03-04T01:44:52.056Z,98.32
2018-03-04T01:45:54.922Z,83.72
2018-03-04T01:46:57.569Z,86.07
2018-03-04T01:48:00.155Z,89.70
2018-03-04T01:49:02.790Z,93.93
2018-03-04T01:50:06.086Z,94.80
2018-03-04T01:51:09.673Z,88.87
2018-03-04T01:52:12.244Z,87.37
2018-03-04T01:53:16.245Z,98.18
2018-03-04T01:54:19.594Z,90.97
2018-03-04T01:55:22.280Z,86.15
2018-03-04T01:56:24.816Z,87.62
2018-03-04T01:57:27.450Z,84.37
2018-03-04T01:58:30.132Z,89.45
2018-03-04T01:59:32.679Z,96.50
2018-03-04T02:00:35.223Z,87.65
2018-03-04T02:01:38.589Z,87.85
2018-03-04T02:02:41.913Z,98.35
2018-03-04T02:03:44.534Z,91.57
2018-03-04T02:04:49.137Z,98.70
2018-03-04T02:05:51.693Z,88.32
2018-03-04T02:06:54.266Z,82.35
2018-03-04T02:07:56.833Z,92.95
2018-03-04T02:08:59.560Z,83.10
2018-03-04T02:10:03.056Z,84.62
2018-03-04T02:11:05.580Z,105.60
2018-03-04T02:12:08.556Z,87.50
2018-03-04T02:13:11.107Z,96.93
2018-03-04T02:14:13.631Z,102.70
2018-03-04T02:15:16.137Z,104.25
2018-03-04T02:16:18.652Z,89.47
2018-03-04T02:17:21.578Z,77.68
2018-03-04T02:18:24.842Z,106.53
2018-03-04T02:19:27.333Z,87.03
2018-03-04T02:20:29.837Z,94.97
2018-03-04T02:21:32.338Z,97.10
2018-03-04T02:22:34.855Z,97.37
2018-03-04T02:23:37.449Z,88.97
2018-03-04T02:24:39.973Z,93.75
2018-03-04T02:25:42.570Z,85.45
2018-03-04T02:26:45.096Z,87.88
2018-03-04T02:27:47.610Z,86.40
2018-03-04T02:28:51.226Z,91.95
2018-03-04T02:29:53.717Z,90.30
2018-03-04T02:30:56.413Z,88.57
2018-03-04T02:31:58.921Z,91.82
2018-03-04T02:33:01.974Z,91.07
2018-03-04T02:34:05.094Z,94.40
2018-03-04T02:35:09.291Z,89.97
2018-03-04T02:36:11.793Z,95.60
2018-03-04T02:37:14.351Z,87.37
2018-03-04T02:38:16.858Z,87.80
2018-03-04T02:39:19.363Z,92.22
2018-03-04T02:40:21.884Z,92.72
2018-03-04T02:41:25.293Z,83.82
2018-03-04T02:42:27.913Z,83.55
2018-03-04T02:43:30.542Z,96.45
2018-03-04T02:44:33.031Z,92.72
2018-03-04T02:45:36.382Z,85.95
2018-03-04T02:46:38.900Z,100.57
2018-03-04T02:47:41.408Z,96.93
2018-03-04T02:48:43.901Z,94.00
2018-03-04T02:49:46.414Z,99.05
2018-03-04T02:50:48.904Z,93.82
2018-03-04T02:51:52.161Z,88.95
2018-03-04T02:52:54.671Z,88.50
2018-03-04T02:53:57.211Z,96.30
2018-03-04T02:54:59.688Z,97.03
2018-03-04T02:56:02.205Z,92.72
2018-03-04T02:57:04.689Z,101.87
2018-03-04T02:58:07.967Z,96.22
2018-03-04T02:59:10.468Z,99.53
2018-03-04T03:00:12.969Z,106.57
2018-03-04T03:01:16.211Z,91.57
2018-03-04T03:02:18.710Z,86.60
2018-03-04T03:03:21.247Z,99.47
2018-03-04T03:04:23.726Z,92.22
2018-03-04T03:05:26.240Z,90.10
2018-03-04T03:06:28.901Z,95.80
2018-03-04T03:07:31.445Z,85.97
2018-03-04T03:08:34.525Z,100.20
2018-03-04T03:09:37.663Z,96.32
2018-03-04T03:10:40.945Z,89.03
2018-03-04T03:11:44.193Z,86.60
2018-03-04T03:12:47.311Z,81.03
2018-03-04T03:13:51.335Z,82.37
2018-03-04T03:14:54.605Z,90.55
2018-03-04T03:15:57.123Z,97.10
2018-03-04T03:16:59.600Z,90.68
2018-03-04T03:18:02.171Z,105.07
2018-03-04T03:19:04.688Z,95.87
2018-03-04T03:20:07.204Z,88.93
2018-03-04T03:21:11.303Z,106.18
2018-03-04T03:22:13.782Z,91.93
2018-03-04T03:23:17.107Z,93.95
2018-03-04T03:24:19.641Z,94.22
2018-03-04T03:25:22.710Z,92.40
2018-03-04T03:26:26.120Z,95.10
2018-03-04T03:27:29.299Z,95.47
2018-03-04T03:28:32.085Z,93.75
2018-03-04T03:29:35.060Z,84.85
2018-03-04T03:30:37.579Z,93.90
2018-03-04T03:31:40.057Z,99.22
2018-03-04T03:32:42.623Z,99.05
2018-03-04T03:33:45.114Z,97.43
2018-03-04T03:34:47.614Z,104.60
2018-03-04T03:35:50.145Z,96.22
2018-03-04T03:36:53.240Z,94.20
2018-03-04T03:37:56.491Z,89.05
2018-03-04T03:38:58.983Z,93.78
2018-03-04T03:40:02.196Z,87.12
2018-03-04T03:41:04.711Z,92.22
2018-03-04T03:42:07.193Z,86.57
2018-03-04T03:43:09.692Z,91.15
2018-03-04T03:44:12.169Z,98.87
2018-03-04T03:45:15.613Z,109.55
2018-03-04T03:46:18.808Z,97.95
2018-03-04T03:47:21.570Z,107.10
2018-03-04T03:48:25.428Z,93.25
2018-03-04T03:49:29.381Z,97.00
2018-03-04T03:50:32.265Z,119.85
2018-03-04T03:51:34.754Z,102.43
2018-03-04T03:52:37.248Z,97.15
2018-03-04T03:53:39.740Z,87.22
2018-03-04T03:54:42.261Z,90.32
2018-03-04T03:55:44.781Z,86.82
2018-03-04T03:56:47.269Z,87.32
2018-03-04T03:57:49.836Z,87.40
2018-03-04T03:58:52.341Z,92.07
2018-03-04T03:59:55.193Z,95.38
2018-03-04T04:01:00.237Z,82.28
2018-03-04T04:02:03.698Z,93.30
2018-03-04T04:03:06.984Z,90.53
2018-03-04T04:04:09.526Z,95.87
2018-03-04T04:05:12.043Z,92.85
2018-03-04T04:06:14.570Z,114.97
2018-03-04T04:07:17.071Z,103.80
2018-03-04T04:08:20.470Z,79.03
2018-03-04T04:09:22.970Z,101.95
2018-03-04T04:10:25.458Z,97.82
2018-03-04T04:11:27.969Z,99.97
2018-03-04T04:12:31.204Z,97.88
2018-03-04T04:13:33.689Z,98.12
2018-03-04T04:14:36.203Z,106.07
2018-03-04T04:15:39.457Z,99.35
2018-03-04T04:16:41.976Z,90.15
2018-03-04T04:17:44.489Z,107.05
2018-03-04T04:18:46.978Z,104.65
2018-03-04T04:19:49.544Z,102.25
2018-03-04T04:20:52.097Z,95.32
2018-03-04T04:21:54.579Z,103.05
2018-03-04T04:22:57.341Z,96.82
2018-03-04T04:23:59.826Z,107.07
2018-03-04T04:25:02.336Z,98.57
2018-03-04T04:26:04.836Z,99.65
2018-03-04T04:27:07.333Z,102.55
2018-03-04T04:28:09.865Z,98.97
2018-03-04T04:29:13.130Z,100.80
2018-03-04T04:30:16.260Z,98.00
2018-03-04T04:31:18.762Z,114.05
2018-03-04T04:32:21.261Z,113.28
2018-03-04T04:33:23.776Z,113.05
2018-03-04T04:34:26.272Z,108.47
2018-03-04T04:35:28.775Z,106.25
2018-03-04T04:36:31.270Z,93.72
2018-03-04T04:37:33.767Z,106.20
2018-03-04T04:38:37.908Z,109.22
2018-03-04T04:39:40.418Z,103.05
2018-03-04T04:40:42.945Z,108.93
2018-03-04T04:41:46.564Z,99.03
2018-03-04T04:42:49.133Z,110.95
2018-03-04T04:43:51.664Z,110.68
2018-03-04T04:44:54.150Z,114.88
2018-03-04T04:45:56.659Z,100.55
2018-03-04T04:46:59.181Z,97.18
2018-03-04T04:48:01.668Z,110.18
2018-03-04T04:49:05.015Z,96.35
2018-03-04T04:50:07.552Z,109.10
2018-03-04T04:51:10.079Z,112.43
2018-03-04T04:52:12.604Z,99.55
2018-03-04T04:53:15.126Z,103.62
2018-03-04T04:54:17.710Z,103.35
2018-03-04T04:55:20.241Z,113.40
2018-03-04T04:56:22.754Z,114.80
2018-03-04T04:57:25.258Z,117.55
2018-03-04T04:58:27.748Z,115.65
2018-03-04T04:59:31.213Z,112.50
2018-03-04T05:00:33.941Z,109.40
2018-03-04T05:01:36.877Z,108.63
2018-03-04T05:02:39.355Z,107.35
2018-03-04T05:03:41.862Z,103.62
2018-03-04T05:04:45.141Z,98.00
2018-03-04T05:05:47.655Z,109.15
2018-03-04T05:06:50.140Z,111.45
2018-03-04T05:07:52.650Z,100.15
2018-03-04T05:08:55.601Z,96.53
2018-03-04T05:09:58.853Z,99.60
2018-03-04T05:11:01.341Z,103.53
2018-03-04T05:12:03.955Z,102.40
2018-03-04T05:13:06.579Z,115.20
2018-03-04T05:14:09.095Z,98.80
2018-03-04T05:15:11.607Z,93.50
2018-03-04T05:16:14.669Z,99.30
2018-03-04T05:17:17.261Z,108.85
2018-03-04T05:18:19.743Z,101.35
2018-03-04T05:19:22.576Z,104.05
2018-03-04T05:20:25.364Z,115.97
2018-03-04T05:21:29.426Z,108.18
2018-03-04T05:22:31.908Z,109.07
2018-03-04T05:23:34.413Z,101.97
2018-03-04T05:24:36.891Z,108.20
2018-03-04T05:25:40.334Z,114.80
2018-03-04T05:26:42.829Z,125.20
2018-03-04T05:27:45.355Z,116.57
2018-03-04T05:28:48.392Z,118.60
2018-03-04T05:29:50.942Z,112.72
2018-03-04T05:30:53.584Z,104.68
2018-03-04T05:31:56.073Z,116.57
2018-03-04T05:32:58.592Z,101.43
2018-03-04T05:34:01.183Z,129.82
2018-03-04T05:35:04.449Z,122.20
2018-03-04T05:36:06.961Z,117.18
2018-03-04T05:37:09.465Z,115.35
2018-03-04T05:38:11.990Z,101.97
2018-03-04T05:39:15.273Z,117.35
2018-03-04T05:40:18.565Z,114.25
2018-03-04T05:41:21.100Z,111.85
2018-03-04T05:42:23.658Z,109.72
2018-03-04T05:43:27.367Z,114.00
2018-03-04T05:44:30.370Z,113.65
2018-03-04T05:45:33.781Z,108.07
2018-03-04T05:46:36.310Z,107.87
2018-03-04T05:47:38.836Z,116.07
2018-03-04T05:48:41.399Z,113.32
2018-03-04T05:49:43.906Z,121.68
2018-03-04T05:50:46.475Z,111.82
2018-03-04T05:51:48.984Z,113.12
2018-03-04T05:52:52.280Z,119.72
2018-03-04T05:53:54.781Z,115.55
2018-03-04T05:54:57.289Z,107.30
2018-03-04T05:55:59.785Z,106.78
2018-03-04T05:57:02.283Z,99.35
2018-03-04T05:58:05.232Z,104.25
2018-03-04T05:59:07.736Z,118.93
2018-03-04T06:00:10.287Z,98.05
2018-03-04T06:01:12.827Z,111.35
2018-03-04T06:02:15.357Z,111.12
2018-03-04T06:03:17.919Z,114.00
2018-03-04T06:04:21.227Z,121.35
2018-03-04T06:05:23.722Z,111.62
2018-03-04T06:06:26.226Z,111.78
2018-03-04T06:07:29.808Z,125.80
2018-03-04T06:08:33.192Z,112.62
2018-03-04T06:09:35.677Z,122.65
2018-03-04T06:10:38.180Z,109.45
2018-03-04T06:11:40.685Z,123.05
2018-03-04T06:12:43.205Z,108.15
2018-03-04T06:13:45.697Z,111.25
2018-03-04T06:14:48.187Z,120.07
2018-03-04T06:15:50.691Z,108.00
2018-03-04T06:16:53.343Z,118.07
2018-03-04T06:17:55.841Z,109.55
2018-03-04T06:18:58.577Z,104.85
2018-03-04T06:20:01.072Z,124.22
2018-03-04T06:21:04.195Z,115.60
2018-03-04T06:22:06.680Z,116.20
2018-03-04T06:23:11.268Z,111.43
2018-03-04T06:24:13.844Z,110.95
2018-03-04T06:25:16.366Z,107.63
2018-03-04T06:26:19.786Z,108.72
2018-03-04T06:27:22.313Z,107.72
2018-03-04T06:28:25.771Z,115.20
2018-03-04T06:29:28.529Z,111.40
2018-03-04T06:30:31.072Z,115.72
2018-03-04T06:31:34.702Z,103.62
2018-03-04T06:32:37.374Z,115.43
2018-03-04T06:33:40.650Z,105.80
2018-03-04T06:34:43.165Z,103.70
2018-03-04T06:35:46.183Z,100.90
2018-03-04T06:36:50.008Z,105.50
2018-03-04T06:37:53.199Z,108.63
2018-03-04T06:38:55.737Z,103.97
2018-03-04T06:39:58.251Z,106.57
2018-03-04T06:41:00.773Z,101.40
2018-03-04T06:54:59.076Z,81.93
2018-03-04T06:56:01.584Z,95.57
2018-03-04T06:57:04.074Z,103.30
2018-03-04T06:58:06.572Z,107.40
2018-03-04T06:59:09.058Z,99.40
2018-03-04T07:00:12.360Z,114.03
2018-03-04T07:01:14.859Z,107.75
2018-03-04T07:02:17.960Z,109.30
2018-03-04T07:03:20.525Z,108.15
2018-03-04T07:04:23.061Z,102.70
2018-03-04T07:05:25.585Z,114.30
2018-03-04T07:06:28.107Z,103.72
2018-03-04T07:07:30.613Z,101.75
2018-03-04T07:08:33.629Z,93.32
2018-03-04T07:09:36.187Z,103.22
2018-03-04T07:10:38.713Z,99.93
2018-03-04T07:24:36.259Z,95.38
2018-03-04T07:25:38.785Z,82.97
2018-03-04T07:26:41.301Z,97.20
2018-03-04T07:27:43.879Z,103.15
2018-03-04T07:28:46.384Z,109.97
2018-03-04T07:29:49.656Z,99.07
2018-03-04T07:30:52.149Z,96.30
2018-03-04T07:31:54.669Z,104.18
2018-03-04T07:32:57.223Z,102.57
2018-03-04T07:34:00.762Z,109.50
2018-03-04T07:35:04.071Z,89.55
2018-03-04T07:36:07.013Z,90.35
2018-03-04T07:37:09.527Z,111.18
2018-03-04T07:38:12.068Z,90.78
2018-03-04T07:39:14.612Z,93.45
2018-03-04T07:40:17.156Z,96.00
2018-03-04T07:41:20.642Z,96.60
2018-03-04T07:42:23.135Z,99.07
2018-03-04T07:43:25.641Z,103.78
2018-03-04T07:44:28.149Z,96.43
2018-03-04T07:45:30.641Z,98.93
2018-03-04T07:46:33.139Z,92.35
2018-03-04T07:47:36.575Z,100.72
2018-03-04T07:48:39.901Z,106.68
2018-03-04T07:49:42.407Z,100.22
2018-03-04T07:50:44.927Z,104.12
2018-03-04T07:51:48.336Z,113.45
2018-03-04T07:52:50.912Z,96.20
2018-03-04T07:53:53.420Z,98.78
2018-03-04T07:54:55.928Z,96.95
2018-03-04T07:55:58.997Z,90.32
2018-03-04T07:57:02.500Z,105.10
2018-03-04T07:58:05.028Z,97.45
2018-03-04T07:59:07.597Z,100.62
2018-03-04T08:00:10.143Z,100.20
2018-03-04T08:01:15.011Z,94.47
2018-03-04T08:02:18.663Z,108.95
2018-03-04T08:03:22.767Z,106.10
2018-03-04T08:04:25.271Z,103.78
2018-03-04T08:05:27.789Z,103.15
2018-03-04T08:06:31.111Z,110.80
2018-03-04T08:07:34.322Z,97.97
2018-03-04T08:08:36.977Z,97.15
2018-03-04T08:09:40.819Z,94.85
2018-03-04T08:10:44.118Z,94.80
2018-03-04T08:11:47.535Z,94.95
2018-03-04T08:12:50.043Z,94.43
2018-03-04T08:13:52.670Z,106.32
2018-03-04T08:14:55.951Z,98.03
2018-03-04T08:15:58.679Z,92.43
2018-03-04T08:17:01.578Z,97.75
2018-03-04T08:18:04.129Z,97.40
2018-03-04T08:19:07.961Z,87.78
2018-03-04T08:20:10.474Z,90.20
2018-03-04T08:34:08.889Z,97.07
2018-03-04T08:35:12.390Z,86.18
2018-03-04T08:36:14.960Z,93.87
2018-03-04T08:37:17.530Z,84.37
2018-03-04T08:38:20.842Z,91.12
2018-03-04T08:39:23.492Z,88.80
2018-03-04T08:40:26.034Z,97.07
2018-03-04T08:41:29.947Z,92.25
2018-03-04T08:42:32.448Z,94.53
2018-03-04T08:43:35.765Z,93.80
2018-03-04T08:44:39.090Z,90.22
2018-03-04T08:45:41.776Z,94.20
2018-03-04T08:46:44.276Z,94.30
2018-03-04T08:47:48.446Z,93.72
2018-03-04T08:48:50.938Z,88.03
2018-03-04T08:49:53.455Z,90.05
2018-03-04T08:50:56.316Z,93.95
2018-03-04T08:51:58.866Z,93.95
2018-03-04T08:53:02.303Z,95.78
2018-03-04T08:54:05.310Z,95.45
2018-03-04T08:55:07.846Z,100.93
2018-03-04T08:56:10.387Z,89.32
2018-03-04T08:57:13.123Z,89.95
2018-03-04T08:58:15.624Z,88.80
2018-03-04T08:59:19.762Z,88.65
2018-03-04T09:00:22.316Z,86.90
2018-03-04T09:01:25.700Z,87.45
2018-03-04T09:02:28.249Z,94.93
2018-03-04T09:03:31.777Z,100.15
2018-03-04T09:04:35.360Z,88.60
2018-03-04T09:05:37.911Z,95.70
2018-03-04T09:06:40.480Z,91.30
2018-03-04T09:07:43.069Z,90.20
2018-03-04T09:08:45.581Z,85.78
2018-03-04T09:09:48.242Z,93.90
2018-03-04T09:10:50.796Z,86.50
2018-03-04T09:11:55.360Z,88.50
2018-03-04T09:12:58.999Z,77.10
2018-03-04T09:14:01.678Z,82.70
2018-03-04T09:15:06.736Z,87.72
2018-03-04T09:16:10.271Z,83.53
2018-03-04T09:17:13.536Z,81.60
2018-03-04T09:18:16.157Z,90.00
2018-03-04T09:19:19.036Z,82.40
2018-03-04T09:20:28.847Z,87.93
2018-03-04T09:21:32.212Z,86.72
2018-03-04T09:22:35.677Z,92.28
2018-03-04T09:23:38.225Z,99.13
2018-03-04T09:24:41.913Z,81.68
2018-03-04T09:25:44.505Z,93.78
2018-03-04T09:26:50.008Z,89.45
2018-03-04T09:27:52.562Z,93.53
2018-03-04T09:28:56.138Z,87.70
2018-03-04T09:30:00.575Z,83.30
2018-03-04T09:31:03.152Z,79.57
2018-03-04T09:32:06.964Z,87.72
2018-03-04T09:33:09.585Z,83.72
2018-03-04T09:34:12.373Z,91.57
2018-03-04T09:35:15.805Z,90.25
2018-03-04T09:36:18.458Z,81.28
2018-03-04T09:37:21.088Z,93.72
2018-03-04T09:38:23.756Z,79.10
2018-03-04T09:39:26.344Z,82.37
2018-03-04T09:40:28.877Z,80.00
2018-03-04T09:41:32.185Z,85.05
2018-03-04T09:42:34.758Z,86.40
2018-03-04T09:43:37.439Z,77.28
2018-03-04T09:44:39.947Z,84.53
2018-03-04T09:45:43.358Z,87.32
2018-03-04T09:46:46.526Z,77.93
2018-03-04T09:47:49.910Z,87.47
2018-03-04T09:48:53.617Z,84.97
2018-03-04T09:49:56.185Z,84.65
2018-03-04T09:50:58.795Z,86.30
2018-03-04T09:52:01.857Z,90.45
2018-03-04T09:53:09.961Z,83.62
2018-03-04T09:54:12.642Z,81.95
2018-03-04T09:55:15.684Z,84.00
2018-03-04T09:56:18.285Z,90.53
2018-03-04T09:57:21.316Z,87.45
2018-03-04T09:58:23.838Z,86.18
2018-03-04T09:59:27.309Z,88.35
2018-03-04T10:00:30.520Z,87.28
2018-03-04T10:01:33.990Z,79.95
2018-03-04T10:02:36.533Z,84.22
2018-03-04T10:03:40.351Z,85.85
2018-03-04T10:04:42.940Z,84.18
2018-03-04T10:05:45.910Z,81.12
2018-03-04T10:06:48.698Z,90.35
2018-03-04T10:07:53.414Z,81.60
2018-03-04T10:08:56.104Z,85.15
2018-03-04T10:09:58.678Z,79.18
2018-03-04T10:11:01.288Z,81.97
2018-03-04T10:12:03.822Z,82.93
2018-03-04T10:13:06.475Z,83.68
2018-03-04T10:14:09.211Z,82.62
2018-03-04T10:15:11.899Z,79.10
2018-03-04T10:16:14.806Z,91.95
2018-03-04T10:17:18.603Z,89.20
2018-03-04T10:18:21.602Z,85.68
2018-03-04T10:19:24.164Z,80.72
2018-03-04T10:20:27.530Z,85.20
2018-03-04T10:21:30.090Z,83.93
2018-03-04T10:22:32.954Z,84.50
2018-03-04T10:23:35.545Z,79.05
2018-03-04T10:24:38.148Z,88.20
2018-03-04T10:25:41.642Z,82.53
2018-03-04T10:26:44.221Z,88.25
2018-03-04T10:27:58.918Z,77.97
2018-03-04T10:29:02.481Z,82.45
2018-03-04T10:30:06.087Z,78.15
2018-03-04T10:31:09.412Z,72.87
2018-03-04T10:32:13.189Z,81.95
2018-03-04T10:33:16.493Z,84.20
2018-03-04T10:34:19.782Z,77.37
2018-03-04T10:35:22.325Z,81.60
2018-03-04T10:36:25.833Z,74.43
2018-03-04T10:37:31.618Z,78.80
2018-03-04T10:38:34.218Z,83.15
2018-03-04T10:39:37.617Z,78.85
2018-03-04T10:40:40.184Z,74.00
2018-03-04T10:41:43.613Z,81.82
2018-03-04T10:42:46.189Z,77.22
2018-03-04T10:43:52.512Z,82.20
2018-03-04T10:44:58.836Z,81.47
2018-03-04T10:46:03.794Z,77.57
2018-03-04T10:47:08.068Z,81.57
2018-03-04T10:48:10.752Z,76.47
2018-03-04T10:49:14.504Z,77.62
2018-03-04T10:50:17.175Z,77.85
2018-03-04T10:51:19.789Z,75.55
2018-03-04T10:52:23.250Z,82.20
2018-03-04T10:53:27.965Z,76.80
2018-03-04T10:54:30.496Z,72.55
2018-03-04T10:55:33.778Z,80.20
2018-03-04T10:56:37.061Z,83.72
2018-03-04T10:57:40.548Z,71.65
2018-03-04T10:58:44.252Z,81.78
2018-03-04T10:59:48.526Z,73.65
2018-03-04T11:01:00.845Z,76.78
2018-03-04T11:02:12.275Z,73.40
2018-03-04T11:03:18.685Z,77.85
2018-03-04T11:05:29.782Z,75.37
2018-03-04T11:06:32.481Z,77.05
2018-03-04T11:08:44.114Z,83.22
2018-03-04T11:09:49.354Z,76.75
2018-03-04T11:10:52.485Z,69.55
2018-03-04T11:11:55.700Z,76.28
2018-03-04T11:13:00.319Z,72.45
2018-03-04T11:14:05.577Z,79.95
2018-03-04T11:15:10.950Z,73.40
2018-03-04T11:16:13.996Z,72.28
2018-03-04T11:17:20.124Z,71.35
2018-03-04T11:18:23.541Z,71.95
2018-03-04T11:19:34.477Z,72.62
2018-03-04T11:20:37.999Z,69.90
2018-03-04T11:21:41.723Z,78.20
2018-03-04T11:22:47.685Z,77.15
2018-03-04T11:23:52.462Z,72.28
2018-03-04T11:24:56.003Z,72.18
2018-03-04T11:27:06.150Z,69.22
2018-03-04T11:28:10.002Z,71.97
2018-03-04T11:29:14.720Z,71.37
2018-03-04T11:31:26.453Z,75.37
2018-03-04T11:32:29.009Z,70.40
2018-03-04T11:33:31.559Z,72.07
2018-03-04T11:34:34.747Z,76.18
2018-03-04T11:36:44.228Z,70.03
2018-03-04T11:37:46.734Z,69.70
2018-03-04T11:38:49.265Z,65.32
2018-03-04T11:39:51.829Z,66.85
2018-03-04T11:41:00.995Z,78.47
2018-03-04T11:42:03.561Z,69.78
2018-03-04T11:43:06.758Z,64.95
2018-03-04T11:44:09.751Z,60.38
2018-03-04T11:45:13.237Z,59.83
2018-03-04T11:46:15.822Z,69.68
2018-03-04T11:47:18.498Z,72.00
2018-03-04T11:48:21.843Z,66.37
2018-03-04T11:49:24.340Z,70.72
2018-03-04T11:50:27.924Z,66.18
2018-03-04T11:51:32.233Z,65.65
2018-03-04T11:52:34.734Z,60.35
2018-03-04T11:53:38.020Z,64.00
2018-03-04T11:54:41.310Z,64.60
2018-03-04T11:55:44.603Z,63.20
2018-03-04T11:56:47.155Z,73.28
2018-03-04T11:57:50.427Z,64.55
2018-03-04T11:58:52.922Z,67.87
2018-03-04T11:59:56.186Z,60.85
2018-03-04T12:00:58.819Z,62.80
2018-03-04T12:02:01.344Z,63.63
2018-03-04T12:03:04.666Z,61.33
2018-03-04T12:04:07.191Z,54.95
2018-03-04T12:05:09.722Z,62.20
2018-03-04T12:06:12.247Z,62.58
2018-03-04T12:07:14.771Z,62.53
2018-03-04T12:08:17.370Z,57.28
2018-03-04T12:09:20.657Z,54.63
2018-03-04T12:10:23.160Z,54.80
2018-03-04T12:11:25.681Z,56.45
2018-03-04T12:12:28.261Z,56.20
2018-03-04T12:13:31.587Z,56.33
2018-03-04T12:14:34.112Z,56.28
2018-03-04T12:15:37.418Z,52.25
2018-03-04T12:16:40.735Z,56.42
2018-03-04T12:17:43.273Z,53.20
2018-03-04T12:18:45.815Z,52.97
2018-03-04T12:19:48.349Z,50.75
2018-03-04T12:20:50.922Z,49.58
2018-03-04T12:21:53.513Z,55.95
2018-03-04T12:22:56.085Z,48.00
2018-03-04T12:23:58.612Z,51.72
2018-03-04T12:25:01.894Z,53.72
2018-03-04T12:26:05.189Z,54.72
2018-03-04T12:27:08.465Z,53.30
2018-03-04T12:28:11.011Z,55.65
2018-03-04T12:29:13.538Z,54.50
2018-03-04T12:30:16.782Z,52.83
2018-03-04T12:31:19.291Z,51.25
2018-03-04T12:32:22.598Z,46.17
2018-03-04T12:33:25.151Z,50.30
2018-03-04T12:34:28.427Z,47.83
2018-03-04T12:35:31.689Z,59.42
2018-03-04T12:36:34.200Z,54.40
2018-03-04T12:37:36.720Z,49.20
2018-03-04T12:38:39.268Z,49.50
2018-03-04T12:39:41.777Z,45.47
2018-03-04T12:40:45.933Z,49.47
2018-03-04T12:41:48.427Z,50.20
2018-03-04T12:42:50.953Z,65.22
2018-03-04T12:43:54.240Z,53.13
2018-03-04T12:44:57.537Z,51.60
2018-03-04T12:46:00.840Z,47.35
2018-03-04T12:47:03.359Z,47.55
2018-03-04T12:48:05.852Z,49.20
2018-03-04T12:49:09.231Z,48.38
2018-03-04T12:50:11.739Z,48.45
2018-03-04T12:51:14.302Z,45.17
2018-03-04T12:52:16.814Z,49.63
2018-03-04T12:53:19.360Z,47.88
2018-03-04T12:54:21.940Z,50.05
2018-03-04T12:55:25.183Z,49.30
2018-03-04T12:56:28.474Z,48.83
2018-03-04T12:57:32.380Z,45.75
2018-03-04T12:58:34.917Z,45.53
2018-03-04T12:59:37.444Z,45.40
2018-03-04T13:00:39.958Z,48.13
2018-03-04T13:01:42.478Z,47.50
2018-03-04T13:02:45.045Z,43.10
2018-03-04T13:03:47.526Z,44.58
2018-03-04T13:04:50.058Z,47.88
2018-03-04T13:05:53.436Z,53.08
2018-03-04T13:06:56.750Z,44.05
2018-03-04T13:08:00.109Z,44.55
2018-03-04T13:09:02.635Z,42.33
2018-03-04T13:10:05.174Z,52.75
2018-03-04T13:11:07.741Z,44.20
2018-03-04T13:12:10.301Z,45.28
2018-03-04T13:13:13.519Z,56.25
2018-03-04T13:14:16.805Z,44.83
2018-03-04T13:15:20.093Z,44.72
2018-03-04T13:16:23.371Z,43.47
2018-03-04T13:17:25.916Z,42.08
2018-03-04T13:18:28.514Z,41.97
2018-03-04T13:19:31.120Z,43.10
2018-03-04T13:20:33.689Z,41.92
2018-03-04T13:21:36.195Z,38.65
2018-03-04T13:22:38.755Z,40.33
2018-03-04T13:23:41.268Z,39.42
2018-03-04T13:24:44.551Z,39.05
2018-03-04T13:25:47.064Z,40.80
2018-03-04T13:26:49.574Z,42.20
2018-03-04T13:27:52.069Z,40.55
2018-03-04T13:28:54.580Z,40.25
2018-03-04T13:29:57.116Z,39.92
2018-03-04T13:31:00.413Z,38.00
2018-03-04T13:32:03.715Z,34.50
2018-03-04T13:33:06.237Z,40.05
2018-03-04T13:34:08.767Z,43.28
2018-03-04T13:35:11.322Z,37.90
2018-03-04T13:36:14.638Z,38.85
2018-03-04T13:37:17.160Z,42.62
2018-03-04T13:38:20.463Z,37.53
2018-03-04T13:39:23.745Z,41.20
2018-03-04T13:40:27.026Z,35.67
2018-03-04T13:41:30.350Z,35.50
2018-03-04T13:42:32.877Z,40.55
2018-03-04T13:43:36.161Z,37.63
2018-03-04T13:44:38.666Z,33.33
2018-03-04T13:45:41.930Z,34.88
2018-03-04T13:46:45.230Z,41.28
2018-03-04T13:47:48.521Z,32.53
2018-03-04T13:48:51.802Z,32.65
2018-03-04T13:49:55.096Z,30.02
2018-03-04T13:50:59.255Z,33.45
2018-03-04T13:52:01.796Z,29.35
2018-03-04T13:53:05.487Z,28.27
2018-03-04T13:54:08.768Z,37.90
2018-03-04T13:55:12.049Z,26.02
2018-03-04T13:56:15.333Z,35.42
2018-03-04T13:57:17.859Z,30.08
2018-03-04T13:58:20.408Z,35.92
2018-03-04T13:59:22.919Z,36.05
2018-03-04T14:00:25.441Z,40.03
2018-03-04T14:01:27.966Z,34.63
2018-03-04T14:02:30.491Z,33.50
2018-03-04T14:03:33.018Z,35.03
2018-03-04T14:04:35.516Z,34.30
2018-03-04T14:05:38.814Z,28.27
2018-03-04T14:06:41.332Z,32.17
2018-03-04T14:07:43.943Z,29.40
2018-03-04T14:08:46.428Z,38.35
2018-03-04T14:09:48.947Z,30.33
2018-03-04T14:10:51.476Z,31.83
2018-03-04T14:11:54.955Z,28.00
2018-03-04T14:12:58.311Z,25.55
2018-03-04T14:14:00.852Z,29.85
2018-03-04T14:15:03.395Z,26.45
2018-03-04T14:16:05.934Z,25.98
2018-03-04T14:17:09.217Z,31.02
2018-03-04T14:18:12.041Z,31.02
2018-03-04T14:19:14.618Z,25.00
2018-03-04T14:20:17.173Z,25.85
2018-03-04T14:21:19.686Z,25.37
2018-03-04T14:22:22.192Z,27.37
2018-03-04T14:23:24.714Z,24.73